Time;durP1;ratioP1;P1;durP2;ratioP2;P2;SDS_P1;SDS_P2;PMS_P1;PMS_P2;Temp;Humidity;BMP_temperature;BMP_pressure;BME280_temperature;BME280_humidity;BME280_pressure;Samples;Min_cycle;Max_cycle;Signal;HPM_P1;HPM_P2
2022/04/30 00:01:27;;;;;;;26.85;24.00;;;;;;;29.37;68.43;100600.81;5018710;28;65919;-36
2022/04/30 00:03:58;;;;;;;29.88;26.42;;;;;;;29.42;68.19;100602.00;5050382;28;71173;-37
2022/04/30 00:06:28;;;;;;;31.23;27.90;;;;;;;29.45;68.01;100609.69;5020456;28;66619;-35
2022/04/30 00:08:59;;;;;;;33.58;30.30;;;;;;;29.29;68.15;100587.56;5020773;28;70222;-37
2022/04/30 00:11:29;;;;;;;41.28;34.22;;;;;;;29.52;68.49;100634.81;5038171;28;66950;-36
2022/04/30 00:13:59;;;;;;;39.28;35.40;;;;;;;29.45;68.11;100620.50;5040574;28;70686;-36
2022/04/30 00:16:29;;;;;;;38.10;34.20;;;;;;;29.56;68.58;100647.69;5040854;28;65460;-37
2022/04/30 00:18:59;;;;;;;34.33;30.73;;;;;;;29.51;68.04;100630.47;5040346;28;70492;-36
2022/04/30 00:21:30;;;;;;;36.13;30.25;;;;;;;29.64;68.53;100648.47;5040512;28;66376;-34
2022/04/30 00:24:00;;;;;;;34.15;30.33;;;;;;;29.67;68.06;100654.31;5040295;28;69373;-32
2022/04/30 00:26:31;;;;;;;35.97;32.13;;;;;;;29.69;68.05;100654.91;5040235;28;65584;-35
2022/04/30 00:29:01;;;;;;;39.83;33.08;;;;;;;29.71;68.66;100660.91;5038996;28;70481;-36
2022/04/30 00:31:31;;;;;;;37.47;33.45;;;;;;;29.72;68.66;100665.28;5039797;28;65736;-36
2022/04/30 00:34:03;;;;;;;37.50;33.60;;;;;;;29.70;68.25;100670.09;5038613;28;69787;-35
2022/04/30 00:36:33;;;;;;;41.47;36.55;;;;;;;29.75;68.43;100683.75;5039555;28;66180;-36
2022/04/30 00:39:04;;;;;;;45.75;37.35;;;;;;;29.79;68.46;100692.28;5038926;28;70477;-36
2022/04/30 00:41:36;;;;;;;45.15;38.60;;;;;;;29.70;68.91;100683.59;5036763;28;65280;-39
2022/04/30 00:44:06;;;;;;;46.53;38.70;;;;;;;29.80;68.52;100694.75;5043266;28;69984;-36
2022/04/30 00:46:36;;;;;;;44.10;39.42;;;;;;;29.77;68.68;100691.66;5042945;28;66562;-36
2022/04/30 00:49:08;;;;;;;47.15;39.13;;;;;;;29.86;68.17;100716.56;5044125;28;69996;-36
2022/04/30 00:51:45;;;;;;;43.08;37.38;;;;;;;29.92;68.23;100721.94;5043731;28;66130;-36
2022/04/30 00:54:20;;;;;;;48.03;39.70;;;;;;;29.54;68.93;100660.56;5043294;28;70404;-35
2022/04/30 00:56:57;;;;;;;52.17;39.28;;;;;;;29.96;68.61;100730.44;5043429;28;66490;-36
2022/04/30 00:59:30;;;;;;;48.30;38.95;;;;;;;29.73;68.27;100699.38;5042037;28;69879;-35
2022/04/30 01:02:01;;;;;;;48.72;39.97;;;;;;;29.99;68.54;100740.81;5042941;28;65287;-37
2022/04/30 01:04:31;;;;;;;46.58;39.65;;;;;;;29.92;68.64;100731.91;5043768;28;70619;-36
2022/04/30 01:07:09;;;;;;;46.88;36.88;;;;;;;29.84;68.45;100725.72;5040958;28;66296;-38
2022/04/30 01:09:43;;;;;;;43.88;35.97;;;;;;;30.06;67.76;100744.31;5040888;28;69231;-37
2022/04/30 01:12:15;;;;;;;41.30;35.40;;;;;;;29.96;68.09;100733.97;5042704;28;66311;-38
2022/04/30 01:14:46;;;;;;;37.53;33.03;;;;;;;30.11;68.16;100746.38;5043774;28;69276;-40
2022/04/30 01:17:17;;;;;;;43.05;33.72;;;;;;;30.05;68.02;100721.00;5043489;28;65850;-39
2022/04/30 01:19:47;;;;;;;35.95;30.85;;;;;;;30.11;67.62;100730.97;5042319;28;69901;-38
2022/04/30 01:22:33;;;;;;;33.63;30.02;;;;;;;30.21;68.27;100746.72;5042240;28;66779;-36
2022/04/30 01:25:04;;;;;;;32.67;28.58;;;;;;;30.23;67.70;100740.06;5041062;28;70390;-36
2022/04/30 01:27:37;;;;;;;41.28;28.13;;;;;;;30.23;67.99;100753.59;5043341;28;65076;-37
2022/04/30 01:30:07;;;;;;;;;;;;;;;29.89;69.27;100744.00;5043106;28;69595;-36
2022/04/30 01:38:15;;;;;;;33.08;25.23;;;;;;;29.88;68.08;100674.75;5041951;28;66589;-36
2022/04/30 01:40:45;;;;;;;29.23;23.30;;;;;;;30.35;68.23;100742.06;5042788;28;69476;-36
2022/04/30 01:43:16;;;;;;;27.92;22.63;;;;;;;30.36;68.12;100743.72;5041792;28;66216;-36
2022/04/30 01:45:48;;;;;;;33.90;24.17;;;;;;;30.41;67.75;100746.59;5042751;28;68992;-37
2022/04/30 01:48:19;;;;;;;29.45;23.20;;;;;;;30.39;68.07;100752.22;5042992;28;64765;-36
2022/04/30 01:50:50;;;;;;;27.73;21.57;;;;;;;30.43;67.40;100755.34;5042012;28;69636;-38
2022/04/30 01:53:20;;;;;;;23.88;21.08;;;;;;;30.43;67.81;100747.22;5041312;28;65948;-37
2022/04/30 01:55:51;;;;;;;23.35;20.95;;;;;;;30.46;67.48;100752.19;5040461;28;69907;-37
2022/04/30 01:58:41;;;;;;;24.27;19.88;;;;;;;30.50;67.82;100758.81;5031666;28;65426;-37
2022/04/30 02:01:11;;;;;;;19.85;18.02;;;;;;;30.50;67.66;100748.78;5041111;28;69331;-37
2022/04/30 02:03:45;;;;;;;19.88;17.85;;;;;;;30.44;67.77;100743.44;5041728;28;65463;-36
2022/04/30 02:06:20;;;;;;;20.95;18.80;;;;;;;30.58;67.35;100766.66;5025470;28;43968;-37
2022/04/30 02:08:51;;;;;;;24.30;18.75;;;;;;;30.56;67.04;100752.50;5042532;28;66175;-35
2022/04/30 02:11:21;;;;;;;21.67;18.63;;;;;;;30.64;67.09;100762.22;5042098;28;70821;-36
2022/04/30 02:13:56;;;;;;;29.27;18.23;;;;;;;30.22;67.38;100686.16;5042483;28;66103;-35
2022/04/30 02:16:28;;;;;;;22.15;17.95;;;;;;;30.55;67.20;100740.03;5041067;28;70621;-36
2022/04/30 02:19:00;;;;;;;17.60;15.88;;;;;;;30.69;67.17;100765.09;5024680;28;66319;-35
2022/04/30 02:21:32;;;;;;;29.90;16.98;;;;;;;30.34;66.93;100700.66;5042208;28;69823;-36
2022/04/30 02:24:03;;;;;;;17.20;15.13;;;;;;;30.72;66.84;100754.66;5039815;28;65634;-36
2022/04/30 02:26:34;;;;;;;17.20;14.80;;;;;;;30.67;66.91;100743.69;5042305;28;70091;-36
2022/04/30 02:29:07;;;;;;;16.42;14.68;;;;;;;30.77;67.12;100761.28;5041168;28;65572;-36
2022/04/30 02:31:37;;;;;;;22.13;15.77;;;;;;;30.79;67.28;100749.19;5041370;28;70630;-36
2022/04/30 02:34:07;;;;;;;16.73;14.23;;;;;;;30.80;67.32;100755.47;5041538;28;66389;-35
2022/04/30 02:36:37;;;;;;;20.73;13.55;;;;;;;30.84;67.26;100745.81;5041649;28;69450;-37
2022/04/30 02:39:07;;;;;;;21.45;13.00;;;;;;;30.82;67.08;100742.53;5040920;28;65929;-37
2022/04/30 02:41:38;;;;;;;16.63;11.93;;;;;;;30.69;67.28;100722.59;5041758;28;69811;-37
2022/04/30 02:44:08;;;;;;;20.55;11.80;;;;;;;30.85;66.82;100747.50;5041448;28;65372;-37
2022/04/30 02:46:38;;;;;;;29.08;16.17;;;;;;;30.87;67.60;100745.38;5041196;28;70541;-38
2022/04/30 02:49:08;;;;;;;19.98;12.65;;;;;;;30.91;67.49;100741.19;5041152;28;66243;-37
2022/04/30 02:51:38;;;;;;;28.65;13.82;;;;;;;30.91;66.71;100736.59;5040763;28;70230;-39
2022/04/30 02:54:08;;;;;;;15.40;12.43;;;;;;;30.93;67.18;100739.09;5039105;28;65419;-37
2022/04/30 02:56:38;;;;;;;13.35;12.05;;;;;;;30.98;66.84;100735.69;5039782;28;69118;-36
2022/04/30 03:02:01;;;;;;;18.20;13.65;;;;;;;30.96;67.32;100738.63;5037358;28;69896;-36
2022/04/30 03:04:45;;;;;;;21.48;13.05;;;;;;;30.99;67.33;100738.19;5024806;28;66885;-36
2022/04/30 03:07:15;;;;;;;15.98;12.93;;;;;;;30.90;66.65;100717.88;5040988;28;69325;-37
2022/04/30 03:09:47;;;;;;;23.55;13.02;;;;;;;31.06;66.92;100738.09;5040573;28;66643;-36
2022/04/30 03:12:17;;;;;;;20.00;13.27;;;;;;;31.08;67.30;100747.66;5040627;28;69710;-37
2022/04/30 03:14:47;;;;;;;14.48;12.35;;;;;;;30.95;66.68;100720.72;5041589;28;66356;-37
2022/04/30 03:22:55;;;;;;;15.55;12.85;;;;;;;31.16;66.99;100733.81;5040175;28;70477;-36
2022/04/30 03:25:25;;;;;;;17.98;12.82;;;;;;;31.20;66.66;100733.34;5041067;28;66259;-36
2022/04/30 03:27:56;;;;;;;13.90;12.57;;;;;;;31.22;66.99;100733.97;5039890;28;69938;-36
2022/04/30 03:30:26;;;;;;;15.07;11.82;;;;;;;31.16;66.81;100717.56;5039718;28;67063;-37
2022/04/30 03:32:56;;;;;;;15.07;12.38;;;;;;;31.12;66.72;100704.69;5040536;28;70676;-37
2022/04/30 03:35:26;;;;;;;16.60;12.75;;;;;;;31.24;66.28;100724.56;5041164;28;66194;-36
2022/04/30 03:37:56;;;;;;;12.82;11.52;;;;;;;31.30;66.60;100720.94;5038292;28;69711;-36
2022/04/30 03:40:27;;;;;;;17.50;12.80;;;;;;;31.29;66.34;100721.19;5039202;28;66582;-36
2022/04/30 03:42:57;;;;;;;19.08;12.90;;;;;;;31.34;66.54;100726.72;5040841;28;69714;-36
2022/04/30 03:45:28;;;;;;;23.45;12.90;;;;;;;31.36;66.38;100727.38;5039676;28;65835;-36
2022/04/30 03:47:58;;;;;;;14.45;12.73;;;;;;;31.37;66.27;100729.00;5040755;28;69569;-36
2022/04/30 03:50:29;;;;;;;15.20;12.70;;;;;;;31.29;66.35;100713.88;5040887;28;66154;-34
2022/04/30 03:52:59;;;;;;;12.27;10.73;;;;;;;31.39;66.51;100725.03;5041083;28;70158;-36
2022/04/30 03:55:29;;;;;;;13.23;11.93;;;;;;;31.43;66.13;100722.69;5040695;28;65514;-37
2022/04/30 03:58:00;;;;;;;14.18;11.70;;;;;;;31.41;66.39;100719.38;5039849;28;70115;-36
2022/04/30 04:00:30;;;;;;;15.35;11.38;;;;;;;31.49;65.89;100716.34;5040115;28;66248;-36
2022/04/30 04:03:00;;;;;;;13.60;11.13;;;;;;;31.52;65.79;100715.91;5040367;28;69543;-37
2022/04/30 04:05:31;;;;;;;18.08;11.52;;;;;;;31.54;65.78;100713.78;5038339;28;65850;-36
2022/04/30 04:08:01;;;;;;;15.05;10.95;;;;;;;31.58;65.64;100711.44;5040338;28;69713;-37
2022/04/30 04:10:31;;;;;;;11.32;10.18;;;;;;;31.61;65.71;100710.97;5040113;28;65865;-37
2022/04/30 04:18:39;;;;;;;11.05;10.18;;;;;;;31.59;65.44;100681.41;5040000;28;69792;-36
2022/04/30 04:21:10;;;;;;;11.20;10.15;;;;;;;31.74;65.53;100699.97;5040223;28;66528;-36
2022/04/30 04:26:29;;;;;;;11.25;10.15;;;;;;;31.77;65.67;100690.53;5041292;28;66621;-36
2022/04/30 04:29:00;;;;;;;10.25;9.38;;;;;;;31.82;65.20;100696.94;5039475;28;70621;-39
2022/04/30 04:31:30;;;;;;;9.68;8.65;;;;;;;31.83;65.31;100701.28;5040436;28;66679;-37
2022/04/30 04:34:00;;;;;;;10.05;9.13;;;;;;;31.61;64.96;100654.03;5040321;28;70173;-37
2022/04/30 04:36:30;;;;;;;10.13;9.18;;;;;;;31.88;65.14;100697.88;5039783;28;66349;-35
2022/04/30 04:39:00;;;;;;;10.23;9.18;;;;;;;31.89;64.99;100694.09;5040042;28;70324;-36
2022/04/30 04:41:31;;;;;;;8.73;7.95;;;;;;;31.89;65.03;100677.81;5039351;28;66108;-37
2022/04/30 04:44:02;;;;;;;17.02;9.10;;;;;;;31.88;65.25;100673.47;5038222;28;69755;-35
2022/04/30 04:46:33;;;;;;;9.65;8.85;;;;;;;31.92;64.96;100676.56;5040309;28;66465;-35
2022/04/30 04:49:04;;;;;;;11.82;8.23;;;;;;;31.96;64.60;100667.75;5039988;28;70590;-36
2022/04/30 04:51:34;;;;;;;9.25;8.55;;;;;;;31.87;64.72;100658.22;5039491;28;67178;-37
2022/04/30 04:54:05;;;;;;;9.88;8.20;;;;;;;31.98;64.44;100660.19;5039906;28;69452;-36
2022/04/30 04:56:35;;;;;;;10.18;9.25;;;;;;;32.01;64.74;100656.16;5039856;28;66662;-36
2022/04/30 04:59:05;;;;;;;9.68;8.75;;;;;;;31.95;64.71;100638.94;5038382;28;70170;-35
2022/04/30 05:01:36;;;;;;;9.07;8.38;;;;;;;32.03;64.60;100649.44;5040126;28;65401;-36
2022/04/30 05:04:10;;;;;;;9.13;8.55;;;;;;;31.94;64.31;100633.75;5040073;28;68891;-36
2022/04/30 05:06:41;;;;;;;9.85;9.23;;;;;;;32.09;64.56;100644.16;5038867;28;65369;-36
2022/04/30 05:09:11;;;;;;;8.40;7.90;;;;;;;32.12;64.73;100640.97;5039018;28;70004;-36
2022/04/30 05:11:42;;;;;;;9.55;8.75;;;;;;;32.00;64.67;100608.41;5045056;28;65314;-37
2022/04/30 05:14:12;;;;;;;8.73;8.23;;;;;;;32.14;64.68;100630.72;5032089;28;70187;-35
2022/04/30 05:16:42;;;;;;;9.13;8.38;;;;;;;32.13;64.52;100610.09;5032871;28;65670;-39
2022/04/30 05:19:13;;;;;;;9.48;8.55;;;;;;;32.13;64.32;100613.63;5051447;28;70204;-35
2022/04/30 05:21:43;;;;;;;9.23;8.57;;;;;;;32.09;64.20;100592.59;5039080;28;66733;-36
2022/04/30 05:24:14;;;;;;;9.20;8.50;;;;;;;32.19;64.47;100609.13;5039291;28;70208;-37
2022/04/30 05:26:44;;;;;;;9.93;9.02;;;;;;;32.09;64.53;100598.03;5039428;28;67061;-37
2022/04/30 05:29:15;;;;;;;8.82;8.23;;;;;;;32.19;64.30;100595.56;5039274;28;69197;-36
2022/04/30 05:31:45;;;;;;;8.87;7.97;;;;;;;32.12;64.63;100584.00;5042965;28;66265;-36
2022/04/30 05:34:16;;;;;;;9.30;8.50;;;;;;;32.14;64.34;100587.28;5042594;28;70483;-35
2022/04/30 05:36:46;;;;;;;9.23;8.30;;;;;;;32.17;64.50;100586.81;5043321;28;66228;-37
2022/04/30 05:39:16;;;;;;;10.23;8.75;;;;;;;32.09;64.29;100562.75;5042531;28;70368;-38
2022/04/30 05:41:46;;;;;;;9.60;8.70;;;;;;;32.19;64.25;100571.13;5042699;28;65644;-36
2022/04/30 05:44:17;;;;;;;8.40;7.95;;;;;;;32.19;64.30;100563.00;5043182;28;69862;-36
2022/04/30 05:46:47;;;;;;;8.60;8.00;;;;;;;32.22;64.20;100566.06;5043315;28;66238;-36
2022/04/30 05:49:17;;;;;;;8.93;8.18;;;;;;;32.23;64.34;100561.44;5042106;28;70396;-37
2022/04/30 05:51:47;;;;;;;8.70;8.00;;;;;;;32.20;64.08;100546.47;5041371;28;66934;-36
2022/04/30 05:54:17;;;;;;;8.32;7.82;;;;;;;32.27;64.29;100549.06;5042707;28;69732;-35
2022/04/30 05:56:48;;;;;;;9.02;8.32;;;;;;;32.29;64.28;100536.09;5024012;28;66094;-35
2022/04/30 05:59:18;;;;;;;9.10;8.32;;;;;;;32.25;64.45;100522.16;5039236;28;70043;-36
2022/04/30 06:01:48;;;;;;;8.02;7.43;;;;;;;32.25;63.99;100507.75;5035764;28;65472;-35
2022/04/30 06:04:19;;;;;;;8.35;7.70;;;;;;;32.31;64.05;100506.81;5034685;28;69121;-35
2022/04/30 06:06:49;;;;;;;8.02;7.43;;;;;;;32.34;64.09;100505.50;5032346;28;66509;-36
2022/04/30 06:09:20;;;;;;;7.88;7.38;;;;;;;32.34;64.00;100495.47;5035478;28;70151;-36
2022/04/30 06:11:51;;;;;;;8.30;7.70;;;;;;;32.27;63.88;100481.22;5033746;28;67260;-37
2022/04/30 06:14:21;;;;;;;7.75;7.15;;;;;;;32.34;64.00;100487.31;5032696;28;70446;-35
2022/04/30 06:16:52;;;;;;;9.35;7.53;;;;;;;32.34;63.93;100479.19;5035023;28;65315;-35
2022/04/30 06:19:22;;;;;;;8.68;7.88;;;;;;;32.36;64.23;100487.91;5031451;28;68898;-36
2022/04/30 06:21:53;;;;;;;7.45;6.85;;;;;;;32.24;64.27;100468.13;5035627;28;66254;-38
2022/04/30 06:24:23;;;;;;;8.02;7.40;;;;;;;32.38;63.98;100480.38;5036412;28;70418;-35
2022/04/30 06:26:53;;;;;;;8.55;7.70;;;;;;;32.41;64.08;100474.44;5034095;28;65436;-35
2022/04/30 06:29:23;;;;;;;7.68;7.20;;;;;;;32.35;64.04;100464.56;5033825;28;69663;-35
2022/04/30 06:31:55;;;;;;;7.50;7.00;;;;;;;32.40;63.96;100464.66;5035195;28;66533;-36
2022/04/30 06:34:26;;;;;;;6.60;6.00;;;;;;;32.42;63.82;100462.50;5031278;28;70823;-36
2022/04/30 06:36:56;;;;;;;7.25;6.82;;;;;;;32.46;64.00;100466.44;5034842;28;66526;-36
2022/04/30 06:39:26;;;;;;;6.53;6.03;;;;;;;32.49;64.11;100470.56;5035289;28;69953;-39
2022/04/30 06:41:56;;;;;;;7.13;6.68;;;;;;;32.48;63.83;100464.31;5039717;28;66463;-36
2022/04/30 06:44:27;;;;;;;6.80;6.30;;;;;;;32.42;63.54;100443.50;5040369;28;69945;-36
2022/04/30 06:46:58;;;;;;;5.90;5.60;;;;;;;32.40;63.76;100445.66;5040839;28;66797;-36
2022/04/30 06:49:28;;;;;;;7.13;6.53;;;;;;;32.51;63.66;100462.97;5040674;28;69915;-36
2022/04/30 06:51:58;;;;;;;6.93;6.32;;;;;;;32.52;63.64;100463.84;5039956;28;66552;-36
2022/04/30 06:57:21;;;;;;;6.47;6.03;;;;;;;32.49;63.97;100468.69;5041638;28;66463;-36
2022/04/30 06:59:54;;;;;;;6.20;5.70;;;;;;;32.49;63.78;100457.00;5039906;28;70362;-35
2022/04/30 07:02:30;;;;;;;6.57;5.95;;;;;;;32.45;64.18;100451.16;5041565;28;66605;-36
2022/04/30 07:05:00;;;;;;;6.97;6.47;;;;;;;32.49;63.84;100446.94;5039784;28;70406;-37
2022/04/30 07:07:30;;;;;;;10.57;6.13;;;;;;;32.49;64.16;100452.38;5040021;28;65703;-36
2022/04/30 07:10:01;;;;;;;6.75;6.07;;;;;;;32.47;64.09;100451.78;5038857;28;70492;-36
2022/04/30 07:12:31;;;;;;;9.38;5.45;;;;;;;32.49;64.53;100448.84;5039140;28;66116;-36
2022/04/30 07:15:01;;;;;;;6.05;5.63;;;;;;;32.48;64.19;100439.03;5035469;28;70219;-37
2022/04/30 07:17:31;;;;;;;6.50;5.95;;;;;;;32.48;64.61;100444.47;5039384;28;66608;-37
2022/04/30 07:20:02;;;;;;;7.32;5.57;;;;;;;32.46;64.30;100436.56;5022487;28;70431;-36
2022/04/30 07:22:32;;;;;;;5.90;5.40;;;;;;;32.47;64.56;100424.66;5038666;28;66563;-36
2022/04/30 07:25:04;;;;;;;5.43;5.00;;;;;;;32.48;64.26;100422.75;5039725;28;69209;-35
2022/04/30 07:27:34;;;;;;;6.97;5.15;;;;;;;32.40;64.50;100413.09;5041206;28;66739;-36
2022/04/30 07:30:04;;;;;;;6.43;4.78;;;;;;;32.45;64.61;100415.88;5040558;28;69868;-37
2022/04/30 07:32:35;;;;;;;9.35;5.00;;;;;;;32.37;64.22;100391.81;5041279;28;65968;-36
2022/04/30 07:35:05;;;;;;;4.95;4.63;;;;;;;32.47;64.23;100397.50;5040661;28;69488;-37
2022/04/30 07:37:36;;;;;;;7.70;5.00;;;;;;;32.45;64.23;100388.72;5040516;28;65427;-36
2022/04/30 07:40:08;;;;;;;4.75;4.43;;;;;;;32.46;64.46;100385.00;5030197;28;70045;-36
2022/04/30 07:42:38;;;;;;;4.70;4.40;;;;;;;32.46;64.50;100385.00;5040148;28;66214;-36
2022/04/30 07:45:10;;;;;;;6.05;3.83;;;;;;;32.46;64.25;100382.28;5038375;28;70428;-36
2022/04/30 07:47:40;;;;;;;;;;;;;;;32.16;65.32;100393.34;5041542;28;66214;-38
2022/04/30 07:50:10;;;;;;;4.10;3.78;;;;;;;32.45;64.72;100402.31;5038075;28;69826;-35
2022/04/30 07:52:40;;;;;;;4.15;3.85;;;;;;;32.46;64.54;100406.72;5040165;28;67085;-36
2022/04/30 07:55:11;;;;;;;5.30;4.03;;;;;;;32.45;64.05;100410.44;5039483;28;69421;-37
2022/04/30 07:57:41;;;;;;;4.13;3.83;;;;;;;32.36;64.70;100400.22;5040025;28;66300;-35
2022/04/30 08:00:12;;;;;;;5.70;3.90;;;;;;;32.47;64.50;100412.97;5039730;28;69668;-37
2022/04/30 08:02:42;;;;;;;4.10;3.78;;;;;;;32.45;64.57;100405.00;5040696;28;66565;-37
2022/04/30 08:05:12;;;;;;;5.47;4.57;;;;;;;32.46;64.47;100405.91;5039358;28;69690;-36
2022/04/30 08:07:43;;;;;;;4.13;3.75;;;;;;;32.46;64.43;100406.72;5041074;28;67228;-36
2022/04/30 08:10:13;;;;;;;3.75;3.45;;;;;;;32.44;64.74;100408.81;5043890;28;69489;-36
2022/04/30 08:12:45;;;;;;;3.73;3.43;;;;;;;32.44;64.68;100408.00;5038084;28;65738;-37
2022/04/30 08:15:15;;;;;;;4.40;4.00;;;;;;;32.37;64.52;100391.00;5029868;28;70166;-37
2022/04/30 08:17:45;;;;;;;6.35;3.63;;;;;;;32.38;64.45;100389.97;5030045;28;66090;-36
2022/04/30 08:20:16;;;;;;;3.95;3.65;;;;;;;32.46;64.41;100401.28;5020692;28;69473;-37
2022/04/30 08:22:46;;;;;;;4.05;3.75;;;;;;;32.40;64.68;100383.22;5039317;28;66616;-36
2022/04/30 08:25:17;;;;;;;3.97;3.38;;;;;;;32.37;64.61;100363.88;5040287;28;70024;-36
2022/04/30 08:27:47;;;;;;;4.13;3.70;;;;;;;32.39;64.71;100367.16;5039213;28;66109;-39
2022/04/30 08:30:17;;;;;;;3.85;3.40;;;;;;;32.44;64.83;100383.56;5039698;28;70252;-36
2022/04/30 08:32:49;;;;;;;3.60;3.30;;;;;;;32.47;64.92;100385.81;5040761;28;65267;-37
2022/04/30 08:35:20;;;;;;;3.38;3.13;;;;;;;32.44;64.90;100392.53;5039212;28;70123;-37
2022/04/30 08:38:09;;;;;;;3.78;3.47;;;;;;;32.40;64.85;100385.94;5037489;28;66149;-36
2022/04/30 08:40:42;;;;;;;3.80;3.50;;;;;;;32.44;64.86;100389.81;5039601;28;69758;-35
2022/04/30 08:43:14;;;;;;;7.05;3.78;;;;;;;32.02;65.04;100305.97;5039886;28;66480;-36
2022/04/30 08:45:45;;;;;;;4.10;3.70;;;;;;;32.42;65.23;100362.06;5039412;28;69596;-35
2022/04/30 08:48:17;;;;;;;4.07;3.77;;;;;;;32.00;64.90;100296.41;5040243;28;65347;-37
2022/04/30 08:50:47;;;;;;;4.03;3.72;;;;;;;32.35;65.50;100355.97;5040560;28;69870;-36
2022/04/30 08:53:18;;;;;;;4.45;4.07;;;;;;;32.38;65.61;100358.22;5038507;28;66123;-36
2022/04/30 08:55:48;;;;;;;4.88;3.88;;;;;;;32.43;65.43;100361.03;5055444;28;70061;-36
2022/04/30 08:58:18;;;;;;;4.05;3.72;;;;;;;32.40;65.51;100358.81;5040241;28;66187;-36
2022/04/30 09:00:49;;;;;;;3.55;3.35;;;;;;;32.43;65.51;100354.75;5038731;28;70242;-35
2022/04/30 09:03:20;;;;;;;4.22;3.90;;;;;;;32.43;65.67;100354.75;5040845;28;66162;-37
2022/04/30 09:05:51;;;;;;;5.43;4.28;;;;;;;32.27;65.98;100329.22;5043478;28;70222;-37
2022/04/30 09:08:21;;;;;;;4.28;3.97;;;;;;;32.42;65.82;100353.94;5042455;28;65436;-36
2022/04/30 09:10:51;;;;;;;6.03;5.00;;;;;;;32.34;66.01;100332.59;5043691;28;70033;-36
2022/04/30 09:13:21;;;;;;;5.75;5.22;;;;;;;32.41;68.78;100344.16;5042077;28;66809;-37
2022/04/30 09:15:53;;;;;;;;;;;;;;;32.08;70.31;100349.47;5040844;28;70101;-36
2022/04/30 09:18:24;;;;;;;8.85;4.70;;;;;;;32.36;67.62;100338.63;5041240;28;66320;-35
2022/04/30 09:20:54;;;;;;;6.32;5.05;;;;;;;32.40;68.00;100347.94;5030898;28;70622;-36
2022/04/30 09:23:33;;;;;;;8.13;7.53;;;;;;;32.04;68.16;100293.00;5031297;28;65436;-35
2022/04/30 09:26:06;;;;;;;8.27;7.45;;;;;;;32.35;68.25;100350.56;5021087;28;69939;-36
2022/04/30 09:28:42;;;;;;;7.45;6.75;;;;;;;31.98;67.98;100279.56;5020350;28;66381;-35
2022/04/30 09:31:20;;;;;;;7.13;6.63;;;;;;;32.41;67.90;100346.88;5023052;28;70463;-38
2022/04/30 09:33:51;;;;;;;7.10;6.60;;;;;;;32.40;68.07;100347.94;5022260;28;65696;-36
2022/04/30 09:39:14;;;;;;;6.82;6.35;;;;;;;32.39;67.79;100346.28;5021780;28;66303;-35
2022/04/30 09:41:46;;;;;;;7.50;6.95;;;;;;;32.35;67.57;100350.56;5022090;28;70240;-36
2022/04/30 09:44:17;;;;;;;6.78;6.38;;;;;;;32.35;67.68;100358.69;5022565;28;66573;-36
2022/04/30 09:46:50;;;;;;;7.15;6.63;;;;;;;32.39;67.77;100369.88;5009624;28;69256;-35
2022/04/30 09:55:01;;;;;;;9.75;6.90;;;;;;;32.35;67.88;100369.56;5040379;28;65288;-36
2022/04/30 09:57:34;;;;;;;8.02;7.53;;;;;;;32.35;67.42;100366.84;5041322;28;70473;-33
2022/04/30 10:00:08;;;;;;;7.57;6.90;;;;;;;32.37;67.38;100375.53;5041822;28;66353;-36
2022/04/30 10:02:45;;;;;;;8.00;7.45;;;;;;;31.93;67.28;100303.88;5042718;28;70131;-38
2022/04/30 10:05:16;;;;;;;7.45;6.70;;;;;;;32.20;67.52;100342.13;5042504;28;66384;-36
2022/04/30 10:07:49;;;;;;;8.43;7.83;;;;;;;32.30;67.61;100364.03;5042426;28;70254;-35
2022/04/30 10:10:25;;;;;;;7.80;7.40;;;;;;;32.32;67.36;100361.91;5041561;28;66489;-35
2022/04/30 10:13:21;;;;;;;8.35;7.75;;;;;;;32.23;67.42;100357.91;5040382;28;69037;-36
2022/04/30 10:15:57;;;;;;;7.63;7.13;;;;;;;32.31;67.42;100359.41;5032566;28;66577;-39
2022/04/30 10:18:43;;;;;;;8.05;7.50;;;;;;;32.21;67.14;100341.88;5030530;28;70487;-36
2022/04/30 10:21:18;;;;;;;7.38;6.90;;;;;;;32.28;67.21;100350.69;5040835;28;66803;-36
2022/04/30 10:23:48;;;;;;;9.52;7.80;;;;;;;32.27;67.20;100353.66;5040564;28;70096;-36
2022/04/30 10:26:18;;;;;;;7.35;6.95;;;;;;;32.23;67.49;100360.63;5038596;28;66253;-39
2022/04/30 10:28:59;;;;;;;7.57;7.05;;;;;;;32.26;67.64;100357.41;5037718;28;69159;-35
2022/04/30 10:31:30;;;;;;;7.40;6.82;;;;;;;32.26;67.28;100362.84;5032000;28;65146;-36
2022/04/30 10:34:00;;;;;;;8.88;7.72;;;;;;;32.26;67.61;100371.84;5036993;28;70199;-35
2022/04/30 10:36:36;;;;;;;7.75;7.25;;;;;;;32.26;67.49;100373.69;5039518;28;65775;-35
2022/04/30 10:39:11;;;;;;;7.40;6.90;;;;;;;32.26;67.42;100373.69;5040280;28;69190;-35
2022/04/30 10:41:43;;;;;;;7.38;6.78;;;;;;;32.25;67.67;100383.75;5041089;28;66229;-35
2022/04/30 10:44:13;;;;;;;7.40;6.78;;;;;;;32.23;67.72;100379.63;5042351;28;69929;-35
2022/04/30 10:46:45;;;;;;;7.28;6.65;;;;;;;32.23;67.65;100379.63;5040756;28;65587;-34
2022/04/30 10:49:15;;;;;;;6.90;6.50;;;;;;;32.23;67.70;100387.75;5041598;28;69874;-35
2022/04/30 10:51:45;;;;;;;6.80;6.20;;;;;;;32.09;67.54;100364.69;5041783;28;66502;-36
2022/04/30 10:54:19;;;;;;;7.25;6.60;;;;;;;32.22;67.50;100388.84;5040155;28;69954;-35
2022/04/30 10:57:05;;;;;;;7.70;7.10;;;;;;;31.94;67.91;100366.03;5040410;28;65383;-39
2022/04/30 10:59:35;;;;;;;7.82;7.22;;;;;;;32.19;67.82;100389.31;5039557;28;69576;-35
2022/04/30 11:02:06;;;;;;;8.05;7.55;;;;;;;32.19;67.85;100386.59;5041485;28;66465;-35
2022/04/30 11:04:37;;;;;;;8.75;7.95;;;;;;;32.16;67.84;100395.22;5041862;28;69030;-35
2022/04/30 11:07:08;;;;;;;7.97;7.38;;;;;;;32.26;67.83;100411.69;5038214;28;65858;-36
2022/04/30 11:09:43;;;;;;;11.18;10.18;;;;;;;31.86;67.91;100347.38;5041243;28;70126;-36
2022/04/30 11:12:17;;;;;;;11.75;10.57;;;;;;;32.25;67.99;100421.72;5041519;28;66346;-36
2022/04/30 11:14:49;;;;;;;13.10;11.77;;;;;;;32.23;67.90;100423.03;5040274;28;69265;-35
2022/04/30 11:17:19;;;;;;;12.63;11.63;;;;;;;32.08;68.00;100396.44;5041865;28;66226;-36
2022/04/30 11:19:50;;;;;;;14.20;12.38;;;;;;;32.20;68.18;100424.34;5040605;28;69179;-35
2022/04/30 11:22:20;;;;;;;14.38;12.98;;;;;;;32.15;68.04;100410.69;5057110;28;65522;-36
2022/04/30 11:24:56;;;;;;;12.75;11.52;;;;;;;32.25;68.54;100431.78;5040141;28;70073;-36
2022/04/30 11:27:31;;;;;;;12.88;11.82;;;;;;;32.28;68.18;100437.53;5039914;28;65681;-34
2022/04/30 11:30:03;;;;;;;13.63;12.60;;;;;;;32.30;68.35;100447.34;5040140;28;70186;-36
2022/04/30 11:32:33;;;;;;;13.38;12.38;;;;;;;32.25;68.35;100439.91;5020854;28;66239;-36
2022/04/30 11:35:05;;;;;;;14.25;13.10;;;;;;;31.81;68.08;100372.50;5019556;28;70693;-35
2022/04/30 11:37:39;;;;;;;16.75;15.27;;;;;;;32.25;68.45;100458.91;5020011;28;66862;-35
2022/04/30 11:40:10;;;;;;;14.68;13.50;;;;;;;32.26;68.33;100449.69;5023172;28;69602;-35
2022/04/30 11:42:40;;;;;;;14.13;13.13;;;;;;;32.24;68.17;100462.69;5025866;28;66529;-36
2022/04/30 11:45:11;;;;;;;14.82;13.45;;;;;;;32.20;67.99;100467.75;5034287;28;70933;-36
2022/04/30 11:47:41;;;;;;;14.65;13.32;;;;;;;32.23;68.10;100466.47;5045837;28;66367;-36
2022/04/30 11:50:11;;;;;;;16.08;13.35;;;;;;;32.29;67.72;100476.38;5033753;28;69553;-35
2022/04/30 11:52:41;;;;;;;14.77;13.55;;;;;;;32.29;67.84;100473.66;5035150;28;66481;-37
2022/04/30 11:55:12;;;;;;;14.38;13.38;;;;;;;32.29;68.05;100492.66;5022664;28;70050;-36
2022/04/30 11:57:43;;;;;;;16.00;14.57;;;;;;;32.20;67.85;100486.75;5025725;28;66697;-35
2022/04/30 12:00:18;;;;;;;15.73;14.38;;;;;;;32.22;68.08;100481.09;5031680;28;69076;-36
2022/04/30 12:02:49;;;;;;;15.68;14.57;;;;;;;32.31;67.97;100501.38;5018400;28;65067;-36
2022/04/30 12:05:21;;;;;;;14.68;13.68;;;;;;;32.28;67.80;100491.81;5039868;28;69446;-36
2022/04/30 12:07:51;;;;;;;18.42;16.75;;;;;;;32.29;67.61;100484.53;5037943;28;65502;-36
2022/04/30 12:10:26;;;;;;;16.23;15.13;;;;;;;31.95;67.86;100435.47;5037831;28;69570;-37
2022/04/30 12:12:56;;;;;;;17.45;15.88;;;;;;;32.28;68.19;100485.56;5034540;28;66422;-36